sensor_id;sensor_type;location;lat;lon;timestamp;temperature;humidity
2465;DHT22;1244;54.326;10.074;2024-01-27T00:00:17;4.50;99.90
2465;DHT22;1244;54.326;10.074;2024-01-27T00:02:43;4.50;99.90
2465;DHT22;1244;54.326;10.074;2024-01-27T00:05:09;4.50;99.90
2465;DHT22;1244;54.326;10.074;2024-01-27T00:07:34;4.60;99.90
2465;DHT22;1244;54.326;10.074;2024-01-27T00:10:01;4.60;99.90
2465;DHT22;1244;54.326;10.074;2024-01-27T00:12:27;4.60;99.90
2465;DHT22;1244;54.326;10.074;2024-01-27T00:14:52;4.60;99.90
2465;DHT22;1244;54.326;10.074;2024-01-27T00:17:18;4.60;99.90
2465;DHT22;1244;54.326;10.074;2024-01-27T00:19:49;4.60;99.90
2465;DHT22;1244;54.326;10.074;2024-01-27T00:22:15;4.70;99.90
2465;DHT22;1244;54.326;10.074;2024-01-27T00:24:42;4.70;99.90
2465;DHT22;1244;54.326;10.074;2024-01-27T00:27:08;4.70;99.90
2465;DHT22;1244;54.326;10.074;2024-01-27T00:29:33;4.70;99.90
2465;DHT22;1244;54.326;10.074;2024-01-27T00:31:59;4.70;99.90
2465;DHT22;1244;54.326;10.074;2024-01-27T00:34:25;4.70;99.90
2465;DHT22;1244;54.326;10.074;2024-01-27T00:36:51;4.60;99.90
2465;DHT22;1244;54.326;10.074;2024-01-27T00:39:17;4.50;99.90
2465;DHT22;1244;54.326;10.074;2024-01-27T00:41:43;4.50;99.90
2465;DHT22;1244;54.326;10.074;2024-01-27T00:44:09;4.50;99.90
2465;DHT22;1244;54.326;10.074;2024-01-27T00:46:34;4.40;99.90
2465;DHT22;1244;54.326;10.074;2024-01-27T00:49:00;4.40;99.90
2465;DHT22;1244;54.326;10.074;2024-01-27T00:51:25;4.40;99.90
2465;DHT22;1244;54.326;10.074;2024-01-27T00:53:51;4.40;99.90
2465;DHT22;1244;54.326;10.074;2024-01-27T00:56:16;4.50;99.90
2465;DHT22;1244;54.326;10.074;2024-01-27T00:58:42;4.40;99.90
2465;DHT22;1244;54.326;10.074;2024-01-27T01:01:07;4.40;99.90
2465;DHT22;1244;54.326;10.074;2024-01-27T01:03:33;4.50;99.90
2465;DHT22;1244;54.326;10.074;2024-01-27T01:05:58;4.50;99.90
2465;DHT22;1244;54.326;10.074;2024-01-27T01:08:24;4.50;99.90
2465;DHT22;1244;54.326;10.074;2024-01-27T01:10:49;4.50;99.90
2465;DHT22;1244;54.326;10.074;2024-01-27T01:13:15;4.50;99.90
2465;DHT22;1244;54.326;10.074;2024-01-27T01:15:40;4.50;99.90
2465;DHT22;1244;54.326;10.074;2024-01-27T01:18:06;4.50;99.90
2465;DHT22;1244;54.326;10.074;2024-01-27T01:20:31;4.50;99.90
2465;DHT22;1244;54.326;10.074;2024-01-27T01:22:58;4.50;99.90
2465;DHT22;1244;54.326;10.074;2024-01-27T01:25:23;4.50;99.90
2465;DHT22;1244;54.326;10.074;2024-01-27T01:27:49;4.50;99.90
2465;DHT22;1244;54.326;10.074;2024-01-27T01:30:15;4.50;99.90
2465;DHT22;1244;54.326;10.074;2024-01-27T01:32:41;4.50;99.90
2465;DHT22;1244;54.326;10.074;2024-01-27T01:35:06;4.50;99.90
2465;DHT22;1244;54.326;10.074;2024-01-27T01:37:32;4.60;99.90
2465;DHT22;1244;54.326;10.074;2024-01-27T01:39:57;4.60;99.90
2465;DHT22;1244;54.326;10.074;2024-01-27T01:42:23;4.60;99.90
2465;DHT22;1244;54.326;10.074;2024-01-27T01:44:51;4.60;99.90
2465;DHT22;1244;54.326;10.074;2024-01-27T01:47:16;4.60;99.90
2465;DHT22;1244;54.326;10.074;2024-01-27T01:49:42;4.70;99.90
2465;DHT22;1244;54.326;10.074;2024-01-27T01:52:08;4.70;99.90
2465;DHT22;1244;54.326;10.074;2024-01-27T01:54:33;4.70;99.90
2465;DHT22;1244;54.326;10.074;2024-01-27T01:56:59;4.70;99.90
2465;DHT22;1244;54.326;10.074;2024-01-27T01:59:25;4.60;99.90
2465;DHT22;1244;54.326;10.074;2024-01-27T02:01:50;4.70;99.90
2465;DHT22;1244;54.326;10.074;2024-01-27T02:04:16;4.70;99.90
2465;DHT22;1244;54.326;10.074;2024-01-27T02:06:41;4.70;99.90
2465;DHT22;1244;54.326;10.074;2024-01-27T02:09:07;4.70;99.90
2465;DHT22;1244;54.326;10.074;2024-01-27T02:11:32;4.70;99.90
2465;DHT22;1244;54.326;10.074;2024-01-27T02:13:58;4.70;99.90
2465;DHT22;1244;54.326;10.074;2024-01-27T02:16:24;4.70;99.90
2465;DHT22;1244;54.326;10.074;2024-01-27T02:18:49;4.70;99.90
2465;DHT22;1244;54.326;10.074;2024-01-27T02:21:14;4.70;99.90
2465;DHT22;1244;54.326;10.074;2024-01-27T02:23:40;4.80;99.90
2465;DHT22;1244;54.326;10.074;2024-01-27T02:26:06;4.70;99.90
2465;DHT22;1244;54.326;10.074;2024-01-27T02:28:32;4.70;99.90
2465;DHT22;1244;54.326;10.074;2024-01-27T02:30:58;4.70;99.90
2465;DHT22;1244;54.326;10.074;2024-01-27T02:33:25;4.70;99.90
2465;DHT22;1244;54.326;10.074;2024-01-27T02:35:51;4.80;99.90
2465;DHT22;1244;54.326;10.074;2024-01-27T02:38:16;4.70;99.90
2465;DHT22;1244;54.326;10.074;2024-01-27T02:40:42;4.80;99.90
2465;DHT22;1244;54.326;10.074;2024-01-27T02:43:07;4.80;99.90
2465;DHT22;1244;54.326;10.074;2024-01-27T02:45:33;4.80;99.90
2465;DHT22;1244;54.326;10.074;2024-01-27T02:47:58;4.80;99.90
2465;DHT22;1244;54.326;10.074;2024-01-27T02:50:24;4.90;99.90
2465;DHT22;1244;54.326;10.074;2024-01-27T02:52:50;4.90;99.90
2465;DHT22;1244;54.326;10.074;2024-01-27T02:55:15;4.90;99.90
2465;DHT22;1244;54.326;10.074;2024-01-27T02:57:41;4.90;99.90
2465;DHT22;1244;54.326;10.074;2024-01-27T03:00:07;4.90;99.90
2465;DHT22;1244;54.326;10.074;2024-01-27T03:02:33;5.00;99.90
2465;DHT22;1244;54.326;10.074;2024-01-27T03:04:58;4.90;99.90
2465;DHT22;1244;54.326;10.074;2024-01-27T03:07:24;4.90;99.90
2465;DHT22;1244;54.326;10.074;2024-01-27T03:09:49;5.00;99.90
2465;DHT22;1244;54.326;10.074;2024-01-27T03:12:15;5.00;99.90
2465;DHT22;1244;54.326;10.074;2024-01-27T03:14:41;5.00;99.90
2465;DHT22;1244;54.326;10.074;2024-01-27T03:17:07;5.00;99.90
2465;DHT22;1244;54.326;10.074;2024-01-27T03:19:33;5.00;99.90
2465;DHT22;1244;54.326;10.074;2024-01-27T03:21:58;5.00;99.90
2465;DHT22;1244;54.326;10.074;2024-01-27T03:24:24;5.00;99.90
2465;DHT22;1244;54.326;10.074;2024-01-27T03:26:50;5.00;99.90
2465;DHT22;1244;54.326;10.074;2024-01-27T03:29:15;5.00;99.90
2465;DHT22;1244;54.326;10.074;2024-01-27T03:31:41;5.00;99.90
2465;DHT22;1244;54.326;10.074;2024-01-27T03:34:06;5.10;99.90
2465;DHT22;1244;54.326;10.074;2024-01-27T03:36:32;5.10;99.90
2465;DHT22;1244;54.326;10.074;2024-01-27T03:38:58;5.10;99.90
2465;DHT22;1244;54.326;10.074;2024-01-27T03:41:24;5.10;99.90
2465;DHT22;1244;54.326;10.074;2024-01-27T03:43:50;5.10;99.90
2465;DHT22;1244;54.326;10.074;2024-01-27T03:46:15;5.10;99.90
2465;DHT22;1244;54.326;10.074;2024-01-27T03:48:41;5.10;99.90
2465;DHT22;1244;54.326;10.074;2024-01-27T03:51:07;5.10;99.90
2465;DHT22;1244;54.326;10.074;2024-01-27T03:53:33;5.20;99.90
2465;DHT22;1244;54.326;10.074;2024-01-27T03:55:58;5.10;99.90
2465;DHT22;1244;54.326;10.074;2024-01-27T03:58:25;5.20;99.90
2465;DHT22;1244;54.326;10.074;2024-01-27T04:00:51;5.20;99.90
2465;DHT22;1244;54.326;10.074;2024-01-27T04:03:17;5.10;99.90
2465;DHT22;1244;54.326;10.074;2024-01-27T04:05:42;5.20;99.90
2465;DHT22;1244;54.326;10.074;2024-01-27T04:08:08;5.10;99.90
2465;DHT22;1244;54.326;10.074;2024-01-27T04:10:33;5.10;99.90
2465;DHT22;1244;54.326;10.074;2024-01-27T04:12:59;5.10;99.90
2465;DHT22;1244;54.326;10.074;2024-01-27T04:15:25;5.10;99.90
2465;DHT22;1244;54.326;10.074;2024-01-27T04:17:51;5.10;99.90
2465;DHT22;1244;54.326;10.074;2024-01-27T04:20:16;5.10;99.90
2465;DHT22;1244;54.326;10.074;2024-01-27T04:22:42;5.00;99.90
2465;DHT22;1244;54.326;10.074;2024-01-27T04:25:07;5.00;99.90
2465;DHT22;1244;54.326;10.074;2024-01-27T04:27:37;5.00;99.90
2465;DHT22;1244;54.326;10.074;2024-01-27T04:30:05;5.00;99.90
2465;DHT22;1244;54.326;10.074;2024-01-27T04:32:31;5.00;99.90
2465;DHT22;1244;54.326;10.074;2024-01-27T04:34:57;4.90;99.90
2465;DHT22;1244;54.326;10.074;2024-01-27T04:37:22;4.90;99.90
2465;DHT22;1244;54.326;10.074;2024-01-27T04:39:48;4.90;99.90
2465;DHT22;1244;54.326;10.074;2024-01-27T04:42:13;4.80;99.90
2465;DHT22;1244;54.326;10.074;2024-01-27T04:44:42;4.80;99.90
2465;DHT22;1244;54.326;10.074;2024-01-27T04:47:08;4.70;99.90
2465;DHT22;1244;54.326;10.074;2024-01-27T04:49:34;4.70;99.90
2465;DHT22;1244;54.326;10.074;2024-01-27T04:51:59;4.70;99.90
2465;DHT22;1244;54.326;10.074;2024-01-27T04:54:25;4.60;99.90
2465;DHT22;1244;54.326;10.074;2024-01-27T04:56:50;4.60;99.90
2465;DHT22;1244;54.326;10.074;2024-01-27T04:59:16;4.70;99.90
2465;DHT22;1244;54.326;10.074;2024-01-27T05:01:45;4.70;99.90
2465;DHT22;1244;54.326;10.074;2024-01-27T05:04:12;4.60;99.90
2465;DHT22;1244;54.326;10.074;2024-01-27T05:06:37;4.60;99.90
2465;DHT22;1244;54.326;10.074;2024-01-27T05:09:04;4.70;99.90
2465;DHT22;1244;54.326;10.074;2024-01-27T05:11:32;4.70;99.90
2465;DHT22;1244;54.326;10.074;2024-01-27T05:13:59;4.70;99.90
2465;DHT22;1244;54.326;10.074;2024-01-27T05:16:24;4.70;99.90
2465;DHT22;1244;54.326;10.074;2024-01-27T05:18:50;4.70;99.90
2465;DHT22;1244;54.326;10.074;2024-01-27T05:21:15;4.70;99.90
2465;DHT22;1244;54.326;10.074;2024-01-27T05:23:41;4.70;99.90
2465;DHT22;1244;54.326;10.074;2024-01-27T05:26:07;4.70;99.90
2465;DHT22;1244;54.326;10.074;2024-01-27T05:28:32;4.70;99.90
2465;DHT22;1244;54.326;10.074;2024-01-27T05:30:58;4.70;99.90
2465;DHT22;1244;54.326;10.074;2024-01-27T05:33:24;4.70;99.90
2465;DHT22;1244;54.326;10.074;2024-01-27T05:35:49;4.70;99.90
2465;DHT22;1244;54.326;10.074;2024-01-27T05:38:15;4.60;99.90
2465;DHT22;1244;54.326;10.074;2024-01-27T05:40:41;4.70;99.90
2465;DHT22;1244;54.326;10.074;2024-01-27T05:43:07;4.60;99.90
2465;DHT22;1244;54.326;10.074;2024-01-27T05:45:32;4.60;99.90
2465;DHT22;1244;54.326;10.074;2024-01-27T05:47:59;4.60;99.90
2465;DHT22;1244;54.326;10.074;2024-01-27T05:50:26;4.60;99.90
2465;DHT22;1244;54.326;10.074;2024-01-27T05:52:51;4.60;99.90
2465;DHT22;1244;54.326;10.074;2024-01-27T05:55:17;4.60;99.90
2465;DHT22;1244;54.326;10.074;2024-01-27T05:57:42;4.60;99.90
2465;DHT22;1244;54.326;10.074;2024-01-27T06:00:08;4.70;99.90
2465;DHT22;1244;54.326;10.074;2024-01-27T06:02:35;4.70;99.90
2465;DHT22;1244;54.326;10.074;2024-01-27T06:05:02;4.70;99.90
2465;DHT22;1244;54.326;10.074;2024-01-27T06:07:27;4.70;99.90
2465;DHT22;1244;54.326;10.074;2024-01-27T06:09:53;4.70;99.90
2465;DHT22;1244;54.326;10.074;2024-01-27T06:12:18;4.70;99.90
2465;DHT22;1244;54.326;10.074;2024-01-27T06:14:44;4.80;99.90
2465;DHT22;1244;54.326;10.074;2024-01-27T06:17:10;4.80;99.90
2465;DHT22;1244;54.326;10.074;2024-01-27T06:19:35;4.70;99.90
2465;DHT22;1244;54.326;10.074;2024-01-27T06:22:01;4.80;99.90
2465;DHT22;1244;54.326;10.074;2024-01-27T06:24:26;4.70;99.90
2465;DHT22;1244;54.326;10.074;2024-01-27T06:26:52;4.70;99.90
2465;DHT22;1244;54.326;10.074;2024-01-27T06:29:17;4.80;99.90
2465;DHT22;1244;54.326;10.074;2024-01-27T06:31:44;4.80;99.90
2465;DHT22;1244;54.326;10.074;2024-01-27T06:34:09;4.80;99.90
2465;DHT22;1244;54.326;10.074;2024-01-27T06:36:35;4.80;99.90
2465;DHT22;1244;54.326;10.074;2024-01-27T06:39:00;4.80;99.90
2465;DHT22;1244;54.326;10.074;2024-01-27T06:41:26;4.80;99.90
2465;DHT22;1244;54.326;10.074;2024-01-27T06:43:51;4.80;99.90
2465;DHT22;1244;54.326;10.074;2024-01-27T06:46:17;4.80;99.90
2465;DHT22;1244;54.326;10.074;2024-01-27T06:48:42;4.80;99.90
2465;DHT22;1244;54.326;10.074;2024-01-27T06:51:08;4.70;99.90
2465;DHT22;1244;54.326;10.074;2024-01-27T06:53:34;4.70;99.90
2465;DHT22;1244;54.326;10.074;2024-01-27T06:55:59;4.70;99.90
2465;DHT22;1244;54.326;10.074;2024-01-27T06:58:25;4.70;99.90
2465;DHT22;1244;54.326;10.074;2024-01-27T07:00:50;4.70;99.90
2465;DHT22;1244;54.326;10.074;2024-01-27T07:03:16;4.60;99.90
2465;DHT22;1244;54.326;10.074;2024-01-27T07:05:41;4.60;99.90
2465;DHT22;1244;54.326;10.074;2024-01-27T07:08:07;4.60;99.90
2465;DHT22;1244;54.326;10.074;2024-01-27T07:10:34;4.50;99.90
2465;DHT22;1244;54.326;10.074;2024-01-27T07:12:59;4.50;99.90
2465;DHT22;1244;54.326;10.074;2024-01-27T07:15:25;4.50;99.90
2465;DHT22;1244;54.326;10.074;2024-01-27T07:17:51;4.40;99.90
2465;DHT22;1244;54.326;10.074;2024-01-27T07:20:19;4.30;99.90
2465;DHT22;1244;54.326;10.074;2024-01-27T07:22:47;4.30;99.90
2465;DHT22;1244;54.326;10.074;2024-01-27T07:25:12;4.30;99.90
2465;DHT22;1244;54.326;10.074;2024-01-27T07:27:39;4.30;99.90
2465;DHT22;1244;54.326;10.074;2024-01-27T07:30:05;4.30;99.90
2465;DHT22;1244;54.326;10.074;2024-01-27T07:32:31;4.30;99.90
2465;DHT22;1244;54.326;10.074;2024-01-27T07:34:58;4.30;99.90
2465;DHT22;1244;54.326;10.074;2024-01-27T07:37:24;4.40;99.90
2465;DHT22;1244;54.326;10.074;2024-01-27T07:39:49;4.40;99.90
2465;DHT22;1244;54.326;10.074;2024-01-27T07:42:15;4.40;99.90
2465;DHT22;1244;54.326;10.074;2024-01-27T07:44:41;4.40;99.90
2465;DHT22;1244;54.326;10.074;2024-01-27T07:47:07;4.30;99.90
2465;DHT22;1244;54.326;10.074;2024-01-27T07:49:34;4.40;99.90
2465;DHT22;1244;54.326;10.074;2024-01-27T07:51:59;4.30;99.90
2465;DHT22;1244;54.326;10.074;2024-01-27T07:54:25;4.30;99.90
2465;DHT22;1244;54.326;10.074;2024-01-27T07:56:50;4.30;99.90
2465;DHT22;1244;54.326;10.074;2024-01-27T07:59:17;4.40;99.90
2465;DHT22;1244;54.326;10.074;2024-01-27T08:01:42;4.40;99.90
2465;DHT22;1244;54.326;10.074;2024-01-27T08:04:11;4.30;99.90
2465;DHT22;1244;54.326;10.074;2024-01-27T08:06:46;4.40;99.90
2465;DHT22;1244;54.326;10.074;2024-01-27T08:09:12;4.50;99.90
2465;DHT22;1244;54.326;10.074;2024-01-27T08:11:38;4.50;99.90
2465;DHT22;1244;54.326;10.074;2024-01-27T08:14:03;4.50;99.90
2465;DHT22;1244;54.326;10.074;2024-01-27T08:16:29;4.50;99.90
2465;DHT22;1244;54.326;10.074;2024-01-27T08:18:54;4.50;99.90
2465;DHT22;1244;54.326;10.074;2024-01-27T08:21:20;4.50;99.90
2465;DHT22;1244;54.326;10.074;2024-01-27T08:23:46;4.50;99.90
2465;DHT22;1244;54.326;10.074;2024-01-27T08:26:13;4.50;99.90
2465;DHT22;1244;54.326;10.074;2024-01-27T08:28:38;4.50;99.90
2465;DHT22;1244;54.326;10.074;2024-01-27T08:31:04;4.50;99.90
2465;DHT22;1244;54.326;10.074;2024-01-27T08:33:30;4.50;99.90
2465;DHT22;1244;54.326;10.074;2024-01-27T08:35:56;4.60;99.90
2465;DHT22;1244;54.326;10.074;2024-01-27T08:38:21;4.60;99.90
2465;DHT22;1244;54.326;10.074;2024-01-27T08:40:47;4.60;99.90
2465;DHT22;1244;54.326;10.074;2024-01-27T08:43:13;4.60;99.90
2465;DHT22;1244;54.326;10.074;2024-01-27T08:45:38;4.60;99.90
2465;DHT22;1244;54.326;10.074;2024-01-27T08:48:05;4.70;99.90
2465;DHT22;1244;54.326;10.074;2024-01-27T08:50:31;4.80;99.90
2465;DHT22;1244;54.326;10.074;2024-01-27T08:52:57;4.80;99.90
2465;DHT22;1244;54.326;10.074;2024-01-27T08:55:23;4.90;99.90
2465;DHT22;1244;54.326;10.074;2024-01-27T08:57:50;4.90;99.90
2465;DHT22;1244;54.326;10.074;2024-01-27T09:00:16;5.00;99.90
2465;DHT22;1244;54.326;10.074;2024-01-27T09:02:42;5.00;99.90
2465;DHT22;1244;54.326;10.074;2024-01-27T09:05:08;5.10;99.90
2465;DHT22;1244;54.326;10.074;2024-01-27T09:07:34;5.40;99.90
2465;DHT22;1244;54.326;10.074;2024-01-27T09:09:59;5.50;99.90
2465;DHT22;1244;54.326;10.074;2024-01-27T09:12:25;5.50;99.90
2465;DHT22;1244;54.326;10.074;2024-01-27T09:14:51;5.80;99.90
2465;DHT22;1244;54.326;10.074;2024-01-27T09:17:16;5.90;99.90
2465;DHT22;1244;54.326;10.074;2024-01-27T09:19:42;6.00;99.90
2465;DHT22;1244;54.326;10.074;2024-01-27T09:22:08;6.10;99.90
2465;DHT22;1244;54.326;10.074;2024-01-27T09:24:33;6.20;99.90
2465;DHT22;1244;54.326;10.074;2024-01-27T09:26:59;6.40;99.90
2465;DHT22;1244;54.326;10.074;2024-01-27T09:29:24;6.30;99.90
2465;DHT22;1244;54.326;10.074;2024-01-27T09:31:50;6.40;99.90
2465;DHT22;1244;54.326;10.074;2024-01-27T09:34:15;6.30;99.90
2465;DHT22;1244;54.326;10.074;2024-01-27T09:36:41;6.40;99.90
2465;DHT22;1244;54.326;10.074;2024-01-27T09:39:06;6.40;99.90
2465;DHT22;1244;54.326;10.074;2024-01-27T09:41:32;6.50;99.90
2465;DHT22;1244;54.326;10.074;2024-01-27T09:44:01;6.60;99.90
2465;DHT22;1244;54.326;10.074;2024-01-27T09:46:31;6.60;99.90
2465;DHT22;1244;54.326;10.074;2024-01-27T09:48:57;6.60;99.90
2465;DHT22;1244;54.326;10.074;2024-01-27T09:51:23;6.50;99.90
2465;DHT22;1244;54.326;10.074;2024-01-27T09:53:49;6.40;99.90
2465;DHT22;1244;54.326;10.074;2024-01-27T09:56:18;6.50;99.90
2465;DHT22;1244;54.326;10.074;2024-01-27T09:58:45;6.50;99.90
2465;DHT22;1244;54.326;10.074;2024-01-27T10:01:11;6.40;99.90
2465;DHT22;1244;54.326;10.074;2024-01-27T10:03:40;6.40;99.90
2465;DHT22;1244;54.326;10.074;2024-01-27T10:06:09;6.20;99.90
2465;DHT22;1244;54.326;10.074;2024-01-27T10:08:35;6.10;99.90
2465;DHT22;1244;54.326;10.074;2024-01-27T10:11:08;6.10;99.90
2465;DHT22;1244;54.326;10.074;2024-01-27T10:13:35;6.10;99.90
2465;DHT22;1244;54.326;10.074;2024-01-27T10:16:02;6.20;99.90
2465;DHT22;1244;54.326;10.074;2024-01-27T10:18:28;6.30;99.90
2465;DHT22;1244;54.326;10.074;2024-01-27T10:20:54;6.30;99.90
2465;DHT22;1244;54.326;10.074;2024-01-27T10:23:19;6.40;99.90
2465;DHT22;1244;54.326;10.074;2024-01-27T10:25:45;6.50;99.90
2465;DHT22;1244;54.326;10.074;2024-01-27T10:28:10;6.50;99.90
2465;DHT22;1244;54.326;10.074;2024-01-27T10:30:36;6.40;99.90
2465;DHT22;1244;54.326;10.074;2024-01-27T10:33:02;6.40;99.90
2465;DHT22;1244;54.326;10.074;2024-01-27T10:35:28;6.40;99.90
2465;DHT22;1244;54.326;10.074;2024-01-27T10:37:55;6.60;99.90
2465;DHT22;1244;54.326;10.074;2024-01-27T10:40:21;6.70;99.90
2465;DHT22;1244;54.326;10.074;2024-01-27T10:45:22;6.70;99.90
2465;DHT22;1244;54.326;10.074;2024-01-27T10:47:49;6.60;99.90
2465;DHT22;1244;54.326;10.074;2024-01-27T10:50:15;6.60;99.90
2465;DHT22;1244;54.326;10.074;2024-01-27T10:52:42;6.70;99.90
2465;DHT22;1244;54.326;10.074;2024-01-27T10:55:10;6.80;99.90
2465;DHT22;1244;54.326;10.074;2024-01-27T10:57:37;6.90;99.90
2465;DHT22;1244;54.326;10.074;2024-01-27T11:00:04;6.90;99.90
2465;DHT22;1244;54.326;10.074;2024-01-27T11:02:35;6.90;99.90
2465;DHT22;1244;54.326;10.074;2024-01-27T11:05:04;7.10;99.90
2465;DHT22;1244;54.326;10.074;2024-01-27T11:07:32;7.20;99.90
2465;DHT22;1244;54.326;10.074;2024-01-27T11:09:58;7.20;99.90
2465;DHT22;1244;54.326;10.074;2024-01-27T11:12:25;7.00;99.90
2465;DHT22;1244;54.326;10.074;2024-01-27T11:14:51;7.10;99.90
2465;DHT22;1244;54.326;10.074;2024-01-27T11:17:17;7.10;99.90
2465;DHT22;1244;54.326;10.074;2024-01-27T11:19:45;7.00;99.90
2465;DHT22;1244;54.326;10.074;2024-01-27T11:22:29;6.90;99.90
2465;DHT22;1244;54.326;10.074;2024-01-27T11:25:08;6.90;99.90
2465;DHT22;1244;54.326;10.074;2024-01-27T11:27:39;6.80;99.90
2465;DHT22;1244;54.326;10.074;2024-01-27T11:30:05;6.60;99.90
2465;DHT22;1244;54.326;10.074;2024-01-27T11:32:31;6.60;99.90
2465;DHT22;1244;54.326;10.074;2024-01-27T11:35:00;6.60;99.90
2465;DHT22;1244;54.326;10.074;2024-01-27T11:37:29;6.60;99.90
2465;DHT22;1244;54.326;10.074;2024-01-27T11:40:03;6.60;99.90
2465;DHT22;1244;54.326;10.074;2024-01-27T11:42:28;6.60;99.90
2465;DHT22;1244;54.326;10.074;2024-01-27T11:44:54;6.60;99.90
2465;DHT22;1244;54.326;10.074;2024-01-27T11:47:21;6.50;99.90
2465;DHT22;1244;54.326;10.074;2024-01-27T11:49:51;6.60;99.90
2465;DHT22;1244;54.326;10.074;2024-01-27T11:52:22;6.60;99.90
2465;DHT22;1244;54.326;10.074;2024-01-27T11:54:57;6.60;99.90
2465;DHT22;1244;54.326;10.074;2024-01-27T11:57:23;6.50;99.90
2465;DHT22;1244;54.326;10.074;2024-01-27T11:59:50;6.60;99.90
2465;DHT22;1244;54.326;10.074;2024-01-27T12:02:16;6.80;99.90
2465;DHT22;1244;54.326;10.074;2024-01-27T12:04:42;6.80;99.90
2465;DHT22;1244;54.326;10.074;2024-01-27T12:07:07;6.90;99.90
2465;DHT22;1244;54.326;10.074;2024-01-27T12:09:37;6.90;99.90
2465;DHT22;1244;54.326;10.074;2024-01-27T12:12:03;6.80;99.90
2465;DHT22;1244;54.326;10.074;2024-01-27T12:14:41;6.80;99.90
2465;DHT22;1244;54.326;10.074;2024-01-27T12:17:09;6.80;99.90
2465;DHT22;1244;54.326;10.074;2024-01-27T12:19:35;6.90;99.90
2465;DHT22;1244;54.326;10.074;2024-01-27T12:22:01;6.90;99.90
2465;DHT22;1244;54.326;10.074;2024-01-27T12:24:27;6.90;99.90
2465;DHT22;1244;54.326;10.074;2024-01-27T12:26:52;6.80;99.90
2465;DHT22;1244;54.326;10.074;2024-01-27T12:29:19;6.80;99.90
2465;DHT22;1244;54.326;10.074;2024-01-27T12:31:45;6.70;99.90
2465;DHT22;1244;54.326;10.074;2024-01-27T12:34:11;6.70;99.90
2465;DHT22;1244;54.326;10.074;2024-01-27T12:36:42;6.80;99.90
2465;DHT22;1244;54.326;10.074;2024-01-27T12:39:08;6.80;99.90
2465;DHT22;1244;54.326;10.074;2024-01-27T12:41:34;6.80;99.90
2465;DHT22;1244;54.326;10.074;2024-01-27T12:44:00;6.80;99.90
2465;DHT22;1244;54.326;10.074;2024-01-27T12:46:25;6.80;99.90
2465;DHT22;1244;54.326;10.074;2024-01-27T12:48:51;6.90;99.90
2465;DHT22;1244;54.326;10.074;2024-01-27T12:51:16;6.80;99.90
2465;DHT22;1244;54.326;10.074;2024-01-27T12:53:42;7.10;99.90
2465;DHT22;1244;54.326;10.074;2024-01-27T12:56:13;7.10;99.90
2465;DHT22;1244;54.326;10.074;2024-01-27T12:58:39;7.30;99.90
2465;DHT22;1244;54.326;10.074;2024-01-27T13:01:05;7.20;99.90
2465;DHT22;1244;54.326;10.074;2024-01-27T13:03:31;7.10;99.90
2465;DHT22;1244;54.326;10.074;2024-01-27T13:05:56;7.00;99.90
2465;DHT22;1244;54.326;10.074;2024-01-27T13:08:22;6.90;99.90
2465;DHT22;1244;54.326;10.074;2024-01-27T13:10:48;6.70;99.90
2465;DHT22;1244;54.326;10.074;2024-01-27T13:13:13;6.80;99.90
2465;DHT22;1244;54.326;10.074;2024-01-27T13:15:38;7.10;99.90
2465;DHT22;1244;54.326;10.074;2024-01-27T13:18:04;7.10;99.90
2465;DHT22;1244;54.326;10.074;2024-01-27T13:20:29;7.40;99.90
2465;DHT22;1244;54.326;10.074;2024-01-27T13:22:55;7.40;99.90
2465;DHT22;1244;54.326;10.074;2024-01-27T13:25:20;7.00;99.90
2465;DHT22;1244;54.326;10.074;2024-01-27T13:27:46;6.90;99.90
2465;DHT22;1244;54.326;10.074;2024-01-27T13:30:12;6.70;99.90
2465;DHT22;1244;54.326;10.074;2024-01-27T13:32:38;6.60;99.90
2465;DHT22;1244;54.326;10.074;2024-01-27T13:35:04;6.60;99.90
2465;DHT22;1244;54.326;10.074;2024-01-27T13:37:29;6.60;99.90
2465;DHT22;1244;54.326;10.074;2024-01-27T13:40:02;6.50;99.90
2465;DHT22;1244;54.326;10.074;2024-01-27T13:42:28;6.40;99.90
2465;DHT22;1244;54.326;10.074;2024-01-27T13:44:54;6.40;99.90
2465;DHT22;1244;54.326;10.074;2024-01-27T13:47:19;6.40;99.90
2465;DHT22;1244;54.326;10.074;2024-01-27T13:49:45;6.30;99.90
2465;DHT22;1244;54.326;10.074;2024-01-27T13:52:10;6.30;99.90
2465;DHT22;1244;54.326;10.074;2024-01-27T13:54:36;6.20;99.90
2465;DHT22;1244;54.326;10.074;2024-01-27T13:57:02;6.20;99.90
2465;DHT22;1244;54.326;10.074;2024-01-27T13:59:27;6.20;99.90
2465;DHT22;1244;54.326;10.074;2024-01-27T14:01:53;6.20;99.90
2465;DHT22;1244;54.326;10.074;2024-01-27T14:04:18;6.20;99.90
2465;DHT22;1244;54.326;10.074;2024-01-27T14:06:44;6.20;99.90
2465;DHT22;1244;54.326;10.074;2024-01-27T14:09:09;6.20;99.90
2465;DHT22;1244;54.326;10.074;2024-01-27T14:11:35;6.30;99.90
2465;DHT22;1244;54.326;10.074;2024-01-27T14:14:00;6.20;99.90
2465;DHT22;1244;54.326;10.074;2024-01-27T14:16:26;6.20;99.90
2465;DHT22;1244;54.326;10.074;2024-01-27T14:18:51;6.20;99.90
2465;DHT22;1244;54.326;10.074;2024-01-27T14:21:17;6.20;99.90
2465;DHT22;1244;54.326;10.074;2024-01-27T14:23:42;6.10;99.90
2465;DHT22;1244;54.326;10.074;2024-01-27T14:26:08;6.10;99.90
2465;DHT22;1244;54.326;10.074;2024-01-27T14:28:40;6.10;99.90
2465;DHT22;1244;54.326;10.074;2024-01-27T14:31:06;6.20;99.90
2465;DHT22;1244;54.326;10.074;2024-01-27T14:33:31;6.10;99.90
2465;DHT22;1244;54.326;10.074;2024-01-27T14:35:57;6.20;99.90
2465;DHT22;1244;54.326;10.074;2024-01-27T14:38:22;6.10;99.90
2465;DHT22;1244;54.326;10.074;2024-01-27T14:40:47;6.10;99.90
2465;DHT22;1244;54.326;10.074;2024-01-27T14:43:13;6.10;99.90
2465;DHT22;1244;54.326;10.074;2024-01-27T14:45:39;6.20;99.90
2465;DHT22;1244;54.326;10.074;2024-01-27T14:48:04;6.20;99.90
2465;DHT22;1244;54.326;10.074;2024-01-27T14:50:30;6.10;99.90
2465;DHT22;1244;54.326;10.074;2024-01-27T14:52:56;6.10;99.90
2465;DHT22;1244;54.326;10.074;2024-01-27T14:55:21;6.10;99.90
2465;DHT22;1244;54.326;10.074;2024-01-27T14:57:47;6.10;99.90
2465;DHT22;1244;54.326;10.074;2024-01-27T15:00:12;6.10;99.90
2465;DHT22;1244;54.326;10.074;2024-01-27T15:02:40;6.10;99.90
2465;DHT22;1244;54.326;10.074;2024-01-27T15:05:05;6.10;99.90
2465;DHT22;1244;54.326;10.074;2024-01-27T15:07:33;6.10;99.90
2465;DHT22;1244;54.326;10.074;2024-01-27T15:09:59;6.10;99.90
2465;DHT22;1244;54.326;10.074;2024-01-27T15:12:24;6.10;99.90
2465;DHT22;1244;54.326;10.074;2024-01-27T15:14:50;6.10;99.90
2465;DHT22;1244;54.326;10.074;2024-01-27T15:17:16;6.10;99.90
2465;DHT22;1244;54.326;10.074;2024-01-27T15:19:43;6.10;99.90
2465;DHT22;1244;54.326;10.074;2024-01-27T15:22:08;6.10;99.90
2465;DHT22;1244;54.326;10.074;2024-01-27T15:24:33;6.10;99.90
2465;DHT22;1244;54.326;10.074;2024-01-27T15:27:02;6.10;99.90
2465;DHT22;1244;54.326;10.074;2024-01-27T15:29:27;6.10;99.90
2465;DHT22;1244;54.326;10.074;2024-01-27T15:31:53;6.10;99.90
2465;DHT22;1244;54.326;10.074;2024-01-27T15:34:18;6.10;99.90
2465;DHT22;1244;54.326;10.074;2024-01-27T15:36:44;6.10;99.90
2465;DHT22;1244;54.326;10.074;2024-01-27T15:39:10;6.10;99.90
2465;DHT22;1244;54.326;10.074;2024-01-27T15:41:36;6.10;99.90
2465;DHT22;1244;54.326;10.074;2024-01-27T15:44:01;6.10;99.90
2465;DHT22;1244;54.326;10.074;2024-01-27T15:46:27;6.10;99.90
2465;DHT22;1244;54.326;10.074;2024-01-27T15:48:52;6.10;99.90
2465;DHT22;1244;54.326;10.074;2024-01-27T15:51:18;6.10;99.90
2465;DHT22;1244;54.326;10.074;2024-01-27T15:53:43;6.10;99.90
2465;DHT22;1244;54.326;10.074;2024-01-27T15:56:09;6.10;99.90